首页
METAR-TAF:

METAR-TAF

机场 :

昌迪加尔, 印度

纬度: 30-40-29N, 经度: 76-47-26E, 海拔: 314米

METAR: 丢失

时间: 20:36 (15:06 UTC)

预报

该预报发布于5小时和36分钟前的09:30 UTC
预报有效从08日的 12点(UTC)到 08日的 24点(UTC)
风速10节,风向西转西北
能見度: 6000
少量云层高于3000英尺
成为
从 08日的 14点(UTC)到 08日的 15点(UTC)
风速5节,风向西转西北
能見度: 6000
天空无云

TAF: VICG 080930Z 0812/0824 29010KT 6000 FEW030 BECMG 0814/0815 30005KT 6000 SKC

超过4000个机场的气象观测和天气预报(METAR&TAF报告)。

可查询的气象台以黄色和红色小点在地图上表示。

将鼠标移到小点上方,可查看气象台名称。

然后点击查看天气观测和预报。

如需切换地图:点击带黑十字的绿色按钮放大地图;点击带横线的绿色按钮缩小地图;或者点击绿色箭头查看邻近地区的地图。


METAR-TAF: